Ouray, CO

1:41 AM MST on January 30, 2015 (GMT -0700)
Ouray | Change Station
CLOSE
Current Station
Personal Weather Station
Location: Ouray, CO
Elevation: 7736 ft
Nearby Weather Stations
Active Advisory: Winter Weather Advisory Active Notice: Public Information Statement

Elev 7736 ft 38.03 °N, 107.67 °W | Updated 5 seconds ago

Overcast
Overcast
34.3 °F
Feels Like 34 °F
N
0.0
Wind Variable Wind from SSW
Gusts 0.0 mph

Today
High -- | Low -- °F
--% Chance of Precip.
Yesterday
High -- | Low -- °F
Precip. -- in
7:17 AM 5:31 PM
Waxing Gibbous, 81% visible
Pressure 30.30 in
Visibility 7.0 miles
Clouds Scattered Clouds 1300 ft
Mostly Cloudy 3500 ft
Overcast 6500 ft
Windchill 34 °F
Dew Point 29 °F
Humidity 82%
Rainfall 0.00 in
Snow Depth Not available.
UV 0 out of 12
Pollen .10 out of 12
Air Quality Not available.
Flu Activity Not available.
METAR KTEX 300835Z AUTO 00000KT 7SM SCT013 BKN035 OVC065 00/00 A3030 RMK AO2 T00001001

More Conditions Fewer Conditions

Pressure 30.30 in
Visibility 7.0 miles
Clouds Scattered Clouds 1300 ft
Mostly Cloudy 3500 ft
Overcast 6500 ft
Windchill 34 °F
Dew Point 29 °F
Humidity 82%
Rainfall 0.00 in
Snow Depth Not available.
UV 0 out of 12
Pollen .10 out of 12
Air Quality Not available.
Flu Activity Not available.
METAR KTEX 300835Z AUTO 00000KT 7SM SCT013 BKN035 OVC065 00/00 A3030 RMK AO2 T00001001

More Conditions Fewer Conditions

10-Day Weather Forecast

Almanac

Astronomy

Jan. 30, 2015 Rise Set
Actual Time
Civil Twilight
Nautical Twilight
Astronomical Twilight
Moon
Length of Visible Light
Length of Day
Tomorrow will be .
, % of the Moon is Illuminated

Today's Extremes

State Highs State Lows

Community

WunderPhotos

Upload Photos

1,791,730 photos uploaded!

WunderBlogs® & News

Nearby

Air Quality

  Air Quality AQ Index Pollutant
Not available.

Snow Depth

Station Depth Elevation

Earthquake Activity

City Distance Mag. Time & Date
Minimum magnitude displayed is 2.5.

Coastal Water Temperatures

Place Temperature

Nearby Weather Stations